sensor_id;sensor_type;location;lat;lon;timestamp;pressure;altitude;pressure_sealevel;temperature;humidity
8320;BME280;4197;42.130;24.746;2023-02-12T00:01:23;100539.56;;;-0.08;52.69
8320;BME280;4197;42.130;24.746;2023-02-12T00:03:52;100534.22;;;-0.03;52.15
8320;BME280;4197;42.130;24.746;2023-02-12T00:06:22;100540.38;;;-0.03;52.79
8320;BME280;4197;42.130;24.746;2023-02-12T00:08:51;100528.41;;;0.00;52.05
8320;BME280;4197;42.130;24.746;2023-02-12T00:11:23;100519.53;;;-0.06;52.32
8320;BME280;4197;42.130;24.746;2023-02-12T00:13:52;100527.59;;;-0.01;51.58
8320;BME280;4197;42.130;24.746;2023-02-12T00:16:22;100519.06;;;0.03;50.78
8320;BME280;4197;42.130;24.746;2023-02-12T00:18:51;100516.84;;;-0.16;51.29
8320;BME280;4197;42.130;24.746;2023-02-12T00:21:22;100516.88;;;-0.11;51.25
8320;BME280;4197;42.130;24.746;2023-02-12T00:23:51;100515.66;;;0.12;49.52
8320;BME280;4197;42.130;24.746;2023-02-12T00:26:20;100510.59;;;0.11;49.43
8320;BME280;4197;42.130;24.746;2023-02-12T00:28:49;100509.84;;;0.20;49.08
8320;BME280;4197;42.130;24.746;2023-02-12T00:31:20;100505.38;;;0.31;48.23
8320;BME280;4197;42.130;24.746;2023-02-12T00:33:48;100505.19;;;0.48;47.72
8320;BME280;4197;42.130;24.746;2023-02-12T00:36:18;100501.22;;;0.66;46.43
8320;BME280;4197;42.130;24.746;2023-02-12T00:38:50;100491.13;;;0.73;46.83
8320;BME280;4197;42.130;24.746;2023-02-12T00:41:19;100482.84;;;0.80;45.97
8320;BME280;4197;42.130;24.746;2023-02-12T00:43:47;100479.38;;;0.79;46.03
8320;BME280;4197;42.130;24.746;2023-02-12T00:46:16;100477.84;;;1.04;44.78
8320;BME280;4197;42.130;24.746;2023-02-12T00:48:44;100471.44;;;1.10;44.69
8320;BME280;4197;42.130;24.746;2023-02-12T00:51:12;100466.63;;;1.12;44.62
8320;BME280;4197;42.130;24.746;2023-02-12T00:53:41;100460.22;;;1.13;44.68
8320;BME280;4197;42.130;24.746;2023-02-12T00:56:10;100454.88;;;1.23;44.59
8320;BME280;4197;42.130;24.746;2023-02-12T00:58:38;100460.22;;;1.23;43.83
8320;BME280;4197;42.130;24.746;2023-02-12T01:01:07;100446.59;;;1.25;44.19
8320;BME280;4197;42.130;24.746;2023-02-12T01:03:35;100452.72;;;1.36;43.82
8320;BME280;4197;42.130;24.746;2023-02-12T01:06:04;100453.53;;;1.41;43.45
8320;BME280;4197;42.130;24.746;2023-02-12T01:08:32;100445.81;;;1.45;43.16
8320;BME280;4197;42.130;24.746;2023-02-12T01:11:03;100446.31;;;1.57;42.53
8320;BME280;4197;42.130;24.746;2023-02-12T01:13:34;100438.03;;;1.64;41.91
8320;BME280;4197;42.130;24.746;2023-02-12T01:16:07;100443.34;;;1.69;41.66
8320;BME280;4197;42.130;24.746;2023-02-12T01:18:37;100438.78;;;1.79;41.46
8320;BME280;4197;42.130;24.746;2023-02-12T01:21:09;100441.75;;;1.83;40.89
8320;BME280;4197;42.130;24.746;2023-02-12T01:23:38;100441.19;;;1.86;40.88
8320;BME280;4197;42.130;24.746;2023-02-12T01:26:06;100432.63;;;1.89;40.58
8320;BME280;4197;42.130;24.746;2023-02-12T01:28:38;100436.09;;;1.90;41.15
8320;BME280;4197;42.130;24.746;2023-02-12T01:31:09;100438.22;;;1.93;41.15
8320;BME280;4197;42.130;24.746;2023-02-12T01:33:37;100436.09;;;1.90;40.56
8320;BME280;4197;42.130;24.746;2023-02-12T01:36:06;100435.84;;;1.86;41.44
8320;BME280;4197;42.130;24.746;2023-02-12T01:38:35;100433.44;;;1.79;41.29
8320;BME280;4197;42.130;24.746;2023-02-12T01:41:04;100432.94;;;1.77;41.58
8320;BME280;4197;42.130;24.746;2023-02-12T01:43:34;100419.28;;;1.79;41.48
8320;BME280;4197;42.130;24.746;2023-02-12T01:46:11;100423.03;;;1.78;41.13
8320;BME280;4197;42.130;24.746;2023-02-12T01:48:42;100420.84;;;1.80;40.80
8320;BME280;4197;42.130;24.746;2023-02-12T01:51:16;100412.56;;;1.82;40.92
8320;BME280;4197;42.130;24.746;2023-02-12T01:53:50;100416.84;;;1.88;40.54
8320;BME280;4197;42.130;24.746;2023-02-12T01:56:22;100413.63;;;1.86;40.38
8320;BME280;4197;42.130;24.746;2023-02-12T01:58:52;100416.28;;;1.91;40.19
8320;BME280;4197;42.130;24.746;2023-02-12T02:01:27;100414.16;;;1.93;40.55
8320;BME280;4197;42.130;24.746;2023-02-12T02:04:00;100418.94;;;1.96;40.65
8320;BME280;4197;42.130;24.746;2023-02-12T02:06:32;100418.69;;;1.97;40.67
8320;BME280;4197;42.130;24.746;2023-02-12T02:09:02;100415.25;;;1.82;40.39
8320;BME280;4197;42.130;24.746;2023-02-12T02:11:31;100410.16;;;1.80;39.98
8320;BME280;4197;42.130;24.746;2023-02-12T02:14:17;100413.66;;;1.75;40.08
8320;BME280;4197;42.130;24.746;2023-02-12T02:17:25;100405.66;;;1.65;40.50
8320;BME280;4197;42.130;24.746;2023-02-12T02:23:09;100411.81;;;1.66;40.17
8320;BME280;4197;42.130;24.746;2023-02-12T02:25:56;100418.47;;;1.68;40.02
8320;BME280;4197;42.130;24.746;2023-02-12T02:28:46;100427.59;;;1.67;39.92
8320;BME280;4197;42.130;24.746;2023-02-12T02:31:25;100424.63;;;1.69;40.37
8320;BME280;4197;42.130;24.746;2023-02-12T02:34:03;100425.72;;;1.73;39.49
8320;BME280;4197;42.130;24.746;2023-02-12T02:36:36;100422.50;;;1.71;40.28
8320;BME280;4197;42.130;24.746;2023-02-12T02:39:27;100428.63;;;1.66;39.87
8320;BME280;4197;42.130;24.746;2023-02-12T02:42:08;100429.47;;;1.72;39.80
8320;BME280;4197;42.130;24.746;2023-02-12T02:44:43;100422.75;;;1.74;40.02
8320;BME280;4197;42.130;24.746;2023-02-12T02:47:19;100428.63;;;1.76;40.20
8320;BME280;4197;42.130;24.746;2023-02-12T02:49:51;100425.97;;;1.76;40.54
8320;BME280;4197;42.130;24.746;2023-02-12T02:52:25;100425.41;;;1.79;40.22
8320;BME280;4197;42.130;24.746;2023-02-12T02:55:00;100418.19;;;1.80;40.15
8320;BME280;4197;42.130;24.746;2023-02-12T02:57:37;100426.75;;;1.77;40.33
8320;BME280;4197;42.130;24.746;2023-02-12T03:00:12;100429.66;;;1.86;40.27
8320;BME280;4197;42.130;24.746;2023-02-12T03:02:47;100425.94;;;1.87;40.88
8320;BME280;4197;42.130;24.746;2023-02-12T03:05:22;100423.25;;;1.92;40.95
8320;BME280;4197;42.130;24.746;2023-02-12T03:07:55;100414.66;;;2.00;40.91
8320;BME280;4197;42.130;24.746;2023-02-12T03:10:29;100417.84;;;2.07;40.49
8320;BME280;4197;42.130;24.746;2023-02-12T03:13:02;100416.50;;;2.10;40.90
8320;BME280;4197;42.130;24.746;2023-02-12T03:15:38;100422.66;;;2.10;40.47
8320;BME280;4197;42.130;24.746;2023-02-12T03:18:15;100426.94;;;2.16;40.08
8320;BME280;4197;42.130;24.746;2023-02-12T03:20:50;100424.25;;;2.16;40.54
8320;BME280;4197;42.130;24.746;2023-02-12T03:23:24;100424.25;;;2.16;40.52
8320;BME280;4197;42.130;24.746;2023-02-12T03:25:57;100427.16;;;2.20;40.46
8320;BME280;4197;42.130;24.746;2023-02-12T03:28:29;100426.09;;;2.21;40.72
8320;BME280;4197;42.130;24.746;2023-02-12T03:31:04;100426.09;;;2.21;39.89
8320;BME280;4197;42.130;24.746;2023-02-12T03:33:45;100418.34;;;2.19;40.69
8320;BME280;4197;42.130;24.746;2023-02-12T03:36:25;100417.00;;;2.17;40.04
8320;BME280;4197;42.130;24.746;2023-02-12T03:39:05;100411.91;;;2.20;40.08
8320;BME280;4197;42.130;24.746;2023-02-12T03:41:42;100408.66;;;2.29;40.04
8320;BME280;4197;42.130;24.746;2023-02-12T03:44:18;100415.59;;;2.30;40.25
8320;BME280;4197;42.130;24.746;2023-02-12T03:46:58;100407.28;;;2.36;39.79
8320;BME280;4197;42.130;24.746;2023-02-12T03:49:33;100413.97;;;2.39;40.02
8320;BME280;4197;42.130;24.746;2023-02-12T03:52:05;100412.66;;;2.36;39.46
8320;BME280;4197;42.130;24.746;2023-02-12T03:54:33;100417.22;;;2.36;38.87
8320;BME280;4197;42.130;24.746;2023-02-12T03:57:05;100416.13;;;2.32;39.43
8320;BME280;4197;42.130;24.746;2023-02-12T03:59:37;100423.38;;;2.31;39.60
8320;BME280;4197;42.130;24.746;2023-02-12T04:02:07;100420.41;;;2.33;39.88
8320;BME280;4197;42.130;24.746;2023-02-12T04:04:37;100423.91;;;2.33;40.87
8320;BME280;4197;42.130;24.746;2023-02-12T04:07:05;100422.50;;;2.41;40.71
8320;BME280;4197;42.130;24.746;2023-02-12T04:09:34;100421.13;;;2.49;41.45
8320;BME280;4197;42.130;24.746;2023-02-12T04:12:14;100419.75;;;2.61;40.81
8320;BME280;4197;42.130;24.746;2023-02-12T04:14:52;100425.88;;;2.67;40.23
8320;BME280;4197;42.130;24.746;2023-02-12T04:17:29;100424.22;;;2.71;40.02
8320;BME280;4197;42.130;24.746;2023-02-12T04:20:10;100423.66;;;2.74;40.13
8320;BME280;4197;42.130;24.746;2023-02-12T04:22:51;100423.94;;;2.78;38.99
8320;BME280;4197;42.130;24.746;2023-02-12T04:25:36;100436.25;;;2.74;38.74
8320;BME280;4197;42.130;24.746;2023-02-12T04:28:12;100442.69;;;2.78;39.01
8320;BME280;4197;42.130;24.746;2023-02-12T04:30:56;100440.50;;;2.80;38.92
8320;BME280;4197;42.130;24.746;2023-02-12T04:33:31;100443.44;;;2.83;38.28
8320;BME280;4197;42.130;24.746;2023-02-12T04:36:11;100436.72;;;2.91;38.77
8320;BME280;4197;42.130;24.746;2023-02-12T04:38:48;100437.22;;;2.93;38.84
8320;BME280;4197;42.130;24.746;2023-02-12T04:41:19;100444.44;;;2.98;38.75
8320;BME280;4197;42.130;24.746;2023-02-12T04:43:47;100438.78;;;2.99;38.31
8320;BME280;4197;42.130;24.746;2023-02-12T04:46:15;100442.28;;;3.00;38.53
8320;BME280;4197;42.130;24.746;2023-02-12T04:48:51;100448.44;;;3.00;38.28
8320;BME280;4197;42.130;24.746;2023-02-12T04:51:22;100454.81;;;3.04;39.19
8320;BME280;4197;42.130;24.746;2023-02-12T04:53:51;100447.34;;;3.01;39.04
8320;BME280;4197;42.130;24.746;2023-02-12T04:56:19;100450.78;;;3.07;39.19
8320;BME280;4197;42.130;24.746;2023-02-12T04:58:47;100455.88;;;3.08;39.18
8320;BME280;4197;42.130;24.746;2023-02-12T05:01:16;100467.16;;;3.05;39.20
8320;BME280;4197;42.130;24.746;2023-02-12T05:03:44;100453.78;;;3.00;39.81
8320;BME280;4197;42.130;24.746;2023-02-12T05:06:12;100447.09;;;2.98;39.24
8320;BME280;4197;42.130;24.746;2023-02-12T05:08:42;100455.41;;;2.96;39.20
8320;BME280;4197;42.130;24.746;2023-02-12T05:11:11;100460.25;;;2.94;39.82
8320;BME280;4197;42.130;24.746;2023-02-12T05:13:39;100453.28;;;2.93;38.98
8320;BME280;4197;42.130;24.746;2023-02-12T05:16:07;100463.75;;;2.89;39.94
8320;BME280;4197;42.130;24.746;2023-02-12T05:18:36;100471.78;;;2.95;39.73
8320;BME280;4197;42.130;24.746;2023-02-12T05:21:04;100481.13;;;2.97;39.66
8320;BME280;4197;42.130;24.746;2023-02-12T05:23:34;100481.91;;;3.03;39.98
8320;BME280;4197;42.130;24.746;2023-02-12T05:26:06;100481.34;;;3.06;40.15
8320;BME280;4197;42.130;24.746;2023-02-12T05:28:36;100486.19;;;3.04;40.09
8320;BME280;4197;42.130;24.746;2023-02-12T05:31:07;100479.22;;;3.03;40.01
8320;BME280;4197;42.130;24.746;2023-02-12T05:33:36;100484.31;;;2.99;39.99
8320;BME280;4197;42.130;24.746;2023-02-12T05:36:06;100481.94;;;2.98;40.48
8320;BME280;4197;42.130;24.746;2023-02-12T05:38:35;100482.16;;;3.01;40.95
8320;BME280;4197;42.130;24.746;2023-02-12T05:41:07;100480.03;;;3.03;40.36
8320;BME280;4197;42.130;24.746;2023-02-12T05:43:36;100486.19;;;3.04;40.26
8320;BME280;4197;42.130;24.746;2023-02-12T05:46:05;100476.78;;;3.06;40.16
8320;BME280;4197;42.130;24.746;2023-02-12T05:48:34;100490.41;;;3.10;40.06
8320;BME280;4197;42.130;24.746;2023-02-12T05:51:05;100481.81;;;3.13;40.09
8320;BME280;4197;42.130;24.746;2023-02-12T05:53:34;100494.94;;;3.20;39.89
8320;BME280;4197;42.130;24.746;2023-02-12T05:56:12;100499.16;;;3.26;39.85
8320;BME280;4197;42.130;24.746;2023-02-12T05:58:44;100499.94;;;3.31;40.17
8320;BME280;4197;42.130;24.746;2023-02-12T06:01:15;100499.63;;;3.38;39.99
8320;BME280;4197;42.130;24.746;2023-02-12T06:03:44;100500.63;;;3.47;39.95
8320;BME280;4197;42.130;24.746;2023-02-12T06:06:13;100502.44;;;3.52;40.48
8320;BME280;4197;42.130;24.746;2023-02-12T06:08:41;100496.22;;;3.62;39.88
8320;BME280;4197;42.130;24.746;2023-02-12T06:11:12;100493.16;;;3.73;40.53
8320;BME280;4197;42.130;24.746;2023-02-12T06:13:41;100494.94;;;3.83;40.56
8320;BME280;4197;42.130;24.746;2023-02-12T06:16:17;100492.72;;;3.90;40.76
8320;BME280;4197;42.130;24.746;2023-02-12T06:18:45;100509.28;;;3.97;40.55
8320;BME280;4197;42.130;24.746;2023-02-12T06:21:14;100497.38;;;4.09;40.69
8320;BME280;4197;42.130;24.746;2023-02-12T06:23:43;100496.78;;;4.12;40.33
8320;BME280;4197;42.130;24.746;2023-02-12T06:26:13;100495.97;;;4.16;40.59
8320;BME280;4197;42.130;24.746;2023-02-12T06:28:42;100509.03;;;4.23;40.60
8320;BME280;4197;42.130;24.746;2023-02-12T06:31:17;100507.88;;;4.29;40.46
8320;BME280;4197;42.130;24.746;2023-02-12T06:33:47;100507.25;;;4.37;40.48
8320;BME280;4197;42.130;24.746;2023-02-12T06:36:16;100506.13;;;4.43;39.93
8320;BME280;4197;42.130;24.746;2023-02-12T06:38:46;100502.88;;;4.46;40.47
8320;BME280;4197;42.130;24.746;2023-02-12T06:41:17;100500.63;;;4.54;40.44
8320;BME280;4197;42.130;24.746;2023-02-12T06:43:45;100502.97;;;4.60;40.66
8320;BME280;4197;42.130;24.746;2023-02-12T06:46:13;100506.88;;;4.68;40.39
8320;BME280;4197;42.130;24.746;2023-02-12T06:48:42;100506.81;;;4.73;40.69
8320;BME280;4197;42.130;24.746;2023-02-12T06:51:12;100505.66;;;4.79;40.32
8320;BME280;4197;42.130;24.746;2023-02-12T06:53:40;100512.00;;;4.88;40.08
8320;BME280;4197;42.130;24.746;2023-02-12T06:56:11;100516.50;;;4.93;40.03
8320;BME280;4197;42.130;24.746;2023-02-12T06:58:42;100525.81;;;5.01;40.13
8320;BME280;4197;42.130;24.746;2023-02-12T07:01:12;100528.63;;;5.09;40.38
8320;BME280;4197;42.130;24.746;2023-02-12T07:03:46;100522.53;;;5.04;40.47
8320;BME280;4197;42.130;24.746;2023-02-12T07:06:14;100533.81;;;5.06;40.50
8320;BME280;4197;42.130;24.746;2023-02-12T07:08:42;100537.59;;;5.05;41.08
8320;BME280;4197;42.130;24.746;2023-02-12T07:11:11;100533.59;;;5.02;41.63
8320;BME280;4197;42.130;24.746;2023-02-12T07:13:41;100542.38;;;5.08;41.47
8320;BME280;4197;42.130;24.746;2023-02-12T07:16:13;100540.78;;;5.07;41.48
8320;BME280;4197;42.130;24.746;2023-02-12T07:18:43;100533.66;;;5.16;41.50
8320;BME280;4197;42.130;24.746;2023-02-12T07:21:13;100538.81;;;5.12;41.66
8320;BME280;4197;42.130;24.746;2023-02-12T07:23:45;100531.19;;;5.20;41.89
8320;BME280;4197;42.130;24.746;2023-02-12T07:26:18;100536.63;;;5.14;41.75
8320;BME280;4197;42.130;24.746;2023-02-12T07:28:48;100531.84;;;5.11;41.97
8320;BME280;4197;42.130;24.746;2023-02-12T07:31:18;100534.84;;;5.10;42.36
8320;BME280;4197;42.130;24.746;2023-02-12T07:33:48;100533.16;;;5.14;42.38
8320;BME280;4197;42.130;24.746;2023-02-12T07:36:18;100531.47;;;5.18;42.74
8320;BME280;4197;42.130;24.746;2023-02-12T07:38:47;100547.84;;;5.22;42.83
8320;BME280;4197;42.130;24.746;2023-02-12T07:41:18;100537.50;;;5.29;42.67
8320;BME280;4197;42.130;24.746;2023-02-12T07:43:53;100528.50;;;5.39;42.63
8320;BME280;4197;42.130;24.746;2023-02-12T07:46:23;100533.88;;;5.39;42.65
8320;BME280;4197;42.130;24.746;2023-02-12T07:48:56;100531.59;;;5.46;42.58
8320;BME280;4197;42.130;24.746;2023-02-12T07:51:26;100534.09;;;5.42;42.62
8320;BME280;4197;42.130;24.746;2023-02-12T07:53:55;100543.19;;;5.46;42.78
8320;BME280;4197;42.130;24.746;2023-02-12T07:56:25;100542.78;;;5.53;42.55
8320;BME280;4197;42.130;24.746;2023-02-12T07:59:00;100544.31;;;5.59;42.61
8320;BME280;4197;42.130;24.746;2023-02-12T08:01:31;100550.78;;;5.58;42.69
8320;BME280;4197;42.130;24.746;2023-02-12T08:04:08;100557.09;;;5.67;42.38
8320;BME280;4197;42.130;24.746;2023-02-12T08:06:39;100557.81;;;5.73;42.32
8320;BME280;4197;42.130;24.746;2023-02-12T08:09:10;100561.31;;;5.73;42.54
8320;BME280;4197;42.130;24.746;2023-02-12T08:11:40;100561.81;;;5.75;42.26
8320;BME280;4197;42.130;24.746;2023-02-12T08:14:14;100571.88;;;5.70;42.43
8320;BME280;4197;42.130;24.746;2023-02-12T08:16:45;100568.66;;;5.68;42.97
8320;BME280;4197;42.130;24.746;2023-02-12T08:19:14;100577.31;;;5.65;43.15
8320;BME280;4197;42.130;24.746;2023-02-12T08:21:49;100565.91;;;5.54;43.67
8320;BME280;4197;42.130;24.746;2023-02-12T08:24:18;100574.22;;;5.57;44.17
8320;BME280;4197;42.130;24.746;2023-02-12T08:26:48;100579.16;;;5.50;44.79
8320;BME280;4197;42.130;24.746;2023-02-12T08:29:20;100585.47;;;5.59;44.72
8320;BME280;4197;42.130;24.746;2023-02-12T08:31:54;100596.88;;;5.70;44.87
8320;BME280;4197;42.130;24.746;2023-02-12T08:34:25;100594.50;;;5.69;45.53
8320;BME280;4197;42.130;24.746;2023-02-12T08:36:54;100593.59;;;5.73;46.24
8320;BME280;4197;42.130;24.746;2023-02-12T08:39:25;100594.75;;;5.86;46.29
8320;BME280;4197;42.130;24.746;2023-02-12T08:41:54;100602.03;;;6.05;46.68
8320;BME280;4197;42.130;24.746;2023-02-12T08:44:24;100600.25;;;6.14;46.46
8320;BME280;4197;42.130;24.746;2023-02-12T08:46:53;100598.56;;;6.18;47.51
8320;BME280;4197;42.130;24.746;2023-02-12T08:49:25;100605.81;;;5.85;49.35
8320;BME280;4197;42.130;24.746;2023-02-12T08:51:55;100612.97;;;5.94;49.18
8320;BME280;4197;42.130;24.746;2023-02-12T08:54:27;100606.69;;;5.99;49.48
8320;BME280;4197;42.130;24.746;2023-02-12T08:56:57;100612.13;;;6.13;49.73
8320;BME280;4197;42.130;24.746;2023-02-12T08:59:28;100608.13;;;6.10;49.24
8320;BME280;4197;42.130;24.746;2023-02-12T09:01:58;100607.81;;;6.12;49.30
8320;BME280;4197;42.130;24.746;2023-02-12T09:04:27;100623.97;;;6.12;49.65
8320;BME280;4197;42.130;24.746;2023-02-12T09:07:00;100615.63;;;6.13;49.45
8320;BME280;4197;42.130;24.746;2023-02-12T09:09:30;100614.22;;;6.16;49.35
8320;BME280;4197;42.130;24.746;2023-02-12T09:11:58;100610.84;;;6.24;49.46
8320;BME280;4197;42.130;24.746;2023-02-12T09:14:28;100622.34;;;6.30;49.68
8320;BME280;4197;42.130;24.746;2023-02-12T09:16:56;100620.13;;;6.32;49.62
8320;BME280;4197;42.130;24.746;2023-02-12T09:19:25;100630.63;;;6.33;49.81
8320;BME280;4197;42.130;24.746;2023-02-12T09:21:57;100626.81;;;6.34;50.23
8320;BME280;4197;42.130;24.746;2023-02-12T09:24:29;100635.03;;;6.43;50.43
8320;BME280;4197;42.130;24.746;2023-02-12T09:26:59;100636.53;;;6.49;50.28
8320;BME280;4197;42.130;24.746;2023-02-12T09:29:29;100640.63;;;6.46;50.40
8320;BME280;4197;42.130;24.746;2023-02-12T09:31:57;100639.63;;;6.56;50.39
8320;BME280;4197;42.130;24.746;2023-02-12T09:34:25;100632.75;;;6.50;50.33
8320;BME280;4197;42.130;24.746;2023-02-12T09:36:56;100637.22;;;6.41;50.94
8320;BME280;4197;42.130;24.746;2023-02-12T09:39:24;100634.31;;;6.37;51.25
8320;BME280;4197;42.130;24.746;2023-02-12T09:45:06;100637.41;;;6.31;51.89
8320;BME280;4197;42.130;24.746;2023-02-12T09:47:43;100637.72;;;6.29;51.59
8320;BME280;4197;42.130;24.746;2023-02-12T09:50:32;100639.88;;;6.27;51.64
8320;BME280;4197;42.130;24.746;2023-02-12T09:53:04;100642.88;;;6.25;51.86
8320;BME280;4197;42.130;24.746;2023-02-12T09:55:33;100637.94;;;6.14;51.87
8320;BME280;4197;42.130;24.746;2023-02-12T09:58:11;100630.97;;;6.13;51.58
8320;BME280;4197;42.130;24.746;2023-02-12T10:00:43;100636.56;;;6.16;51.88
8320;BME280;4197;42.130;24.746;2023-02-12T10:03:14;100629.41;;;6.25;51.75
8320;BME280;4197;42.130;24.746;2023-02-12T10:05:46;100627.94;;;6.33;51.78
8320;BME280;4197;42.130;24.746;2023-02-12T10:08:38;100622.44;;;6.38;51.66
8320;BME280;4197;42.130;24.746;2023-02-12T10:11:18;100619.59;;;6.48;51.28
8320;BME280;4197;42.130;24.746;2023-02-12T10:13:56;100630.84;;;6.64;50.55
8320;BME280;4197;42.130;24.746;2023-02-12T10:16:41;100633.78;;;6.68;50.54
8320;BME280;4197;42.130;24.746;2023-02-12T10:19:26;100629.47;;;6.81;49.76
8320;BME280;4197;42.130;24.746;2023-02-12T10:22:09;100619.97;;;6.97;49.29
8320;BME280;4197;42.130;24.746;2023-02-12T10:24:51;100620.06;;;7.06;47.61
8320;BME280;4197;42.130;24.746;2023-02-12T10:27:34;100612.47;;;7.22;48.17
8320;BME280;4197;42.130;24.746;2023-02-12T10:30:16;100613.31;;;7.45;47.67
8320;BME280;4197;42.130;24.746;2023-02-12T10:32:50;100613.69;;;7.52;47.68
8320;BME280;4197;42.130;24.746;2023-02-12T10:35:24;100613.34;;;7.67;47.19
8320;BME280;4197;42.130;24.746;2023-02-12T10:37:59;100613.66;;;7.66;47.72
8320;BME280;4197;42.130;24.746;2023-02-12T10:40:32;100625.31;;;7.75;47.46
8320;BME280;4197;42.130;24.746;2023-02-12T10:43:03;100627.91;;;7.80;48.07
8320;BME280;4197;42.130;24.746;2023-02-12T10:45:34;100617.84;;;7.94;47.74
8320;BME280;4197;42.130;24.746;2023-02-12T10:48:08;100621.94;;;8.14;46.70
8320;BME280;4197;42.130;24.746;2023-02-12T10:50:44;100620.34;;;8.13;46.99
8320;BME280;4197;42.130;24.746;2023-02-12T10:53:19;100618.94;;;8.16;46.39
8320;BME280;4197;42.130;24.746;2023-02-12T10:55:48;100609.59;;;8.22;46.16
8320;BME280;4197;42.130;24.746;2023-02-12T10:58:20;100627.25;;;8.28;46.11
8320;BME280;4197;42.130;24.746;2023-02-12T11:00:57;100624.03;;;8.40;45.64
8320;BME280;4197;42.130;24.746;2023-02-12T11:03:33;100618.53;;;8.54;43.67
8320;BME280;4197;42.130;24.746;2023-02-12T11:06:14;100623.44;;;8.52;44.24
8320;BME280;4197;42.130;24.746;2023-02-12T11:08:46;100627.75;;;8.53;43.61
8320;BME280;4197;42.130;24.746;2023-02-12T11:11:21;100634.25;;;8.52;42.83
8320;BME280;4197;42.130;24.746;2023-02-12T11:13:57;100630.00;;;8.59;43.27
8320;BME280;4197;42.130;24.746;2023-02-12T11:16:29;100638.13;;;8.59;42.86
8320;BME280;4197;42.130;24.746;2023-02-12T11:19:01;100637.94;;;8.56;42.93
8320;BME280;4197;42.130;24.746;2023-02-12T11:21:34;100646.84;;;8.56;43.20
8320;BME280;4197;42.130;24.746;2023-02-12T11:24:27;100641.50;;;8.42;43.17
8320;BME280;4197;42.130;24.746;2023-02-12T11:27:22;100643.16;;;8.52;43.14
8320;BME280;4197;42.130;24.746;2023-02-12T11:30:11;100635.81;;;8.44;43.18
8320;BME280;4197;42.130;24.746;2023-02-12T11:32:40;100638.91;;;8.60;42.99
8320;BME280;4197;42.130;24.746;2023-02-12T11:35:13;100635.91;;;8.70;42.50
8320;BME280;4197;42.130;24.746;2023-02-12T11:37:45;100634.47;;;8.64;42.58
8320;BME280;4197;42.130;24.746;2023-02-12T11:40:19;100643.97;;;8.53;42.82
8320;BME280;4197;42.130;24.746;2023-02-12T11:42:50;100650.25;;;8.39;43.13
8320;BME280;4197;42.130;24.746;2023-02-12T11:45:21;100641.63;;;8.37;42.98
8320;BME280;4197;42.130;24.746;2023-02-12T11:47:53;100640.25;;;8.40;43.02
8320;BME280;4197;42.130;24.746;2023-02-12T11:50:27;100642.50;;;8.46;43.04
8320;BME280;4197;42.130;24.746;2023-02-12T11:52:58;100636.34;;;8.55;42.66
8320;BME280;4197;42.130;24.746;2023-02-12T11:55:30;100642.38;;;8.52;42.37
8320;BME280;4197;42.130;24.746;2023-02-12T11:58:12;100642.22;;;8.48;42.79
8320;BME280;4197;42.130;24.746;2023-02-12T12:00:45;100633.16;;;8.53;42.57
8320;BME280;4197;42.130;24.746;2023-02-12T12:03:18;100636.63;;;8.53;42.65
8320;BME280;4197;42.130;24.746;2023-02-12T12:05:51;100628.41;;;8.58;43.09
8320;BME280;4197;42.130;24.746;2023-02-12T12:08:24;100639.88;;;8.64;43.12
8320;BME280;4197;42.130;24.746;2023-02-12T12:11:00;100639.88;;;8.64;43.34
8320;BME280;4197;42.130;24.746;2023-02-12T12:13:38;100638.03;;;8.73;43.03
8320;BME280;4197;42.130;24.746;2023-02-12T12:16:11;100640.94;;;8.85;42.70
8320;BME280;4197;42.130;24.746;2023-02-12T12:19:02;100639.16;;;8.89;42.98
8320;BME280;4197;42.130;24.746;2023-02-12T12:22:02;100645.53;;;8.85;43.07
8320;BME280;4197;42.130;24.746;2023-02-12T12:24:38;100651.59;;;8.90;43.11
8320;BME280;4197;42.130;24.746;2023-02-12T12:27:16;100647.16;;;8.94;42.78
8320;BME280;4197;42.130;24.746;2023-02-12T12:30:17;100650.25;;;9.19;42.14
8320;BME280;4197;42.130;24.746;2023-02-12T12:32:48;100655.47;;;9.07;41.78
8320;BME280;4197;42.130;24.746;2023-02-12T12:35:21;100656.69;;;8.92;42.70
8320;BME280;4197;42.130;24.746;2023-02-12T12:37:59;100665.56;;;8.84;42.79
8320;BME280;4197;42.130;24.746;2023-02-12T12:40:41;100669.91;;;8.93;42.74
8320;BME280;4197;42.130;24.746;2023-02-12T12:43:25;100670.59;;;9.08;42.23
8320;BME280;4197;42.130;24.746;2023-02-12T12:46:24;100669.34;;;9.14;42.49
8320;BME280;4197;42.130;24.746;2023-02-12T12:49:11;100671.25;;;9.13;42.33
8320;BME280;4197;42.130;24.746;2023-02-12T12:52:05;100678.28;;;9.23;42.44
8320;BME280;4197;42.130;24.746;2023-02-12T12:54:49;100675.88;;;9.22;42.03
8320;BME280;4197;42.130;24.746;2023-02-12T12:57:35;100674.09;;;9.08;42.59
8320;BME280;4197;42.130;24.746;2023-02-12T13:00:36;100671.84;;;9.02;42.24
8320;BME280;4197;42.130;24.746;2023-02-12T13:09:35;100693.00;;;9.00;42.24
8320;BME280;4197;42.130;24.746;2023-02-12T13:15:16;100691.72;;;8.97;42.41
8320;BME280;4197;42.130;24.746;2023-02-12T13:17:50;100691.91;;;9.01;42.57
8320;BME280;4197;42.130;24.746;2023-02-12T13:20:27;100699.06;;;9.05;42.36
8320;BME280;4197;42.130;24.746;2023-02-12T13:23:00;100707.66;;;8.99;42.73
8320;BME280;4197;42.130;24.746;2023-02-12T13:25:35;100702.56;;;9.06;42.61
8320;BME280;4197;42.130;24.746;2023-02-12T13:28:14;100710.03;;;9.00;42.59
8320;BME280;4197;42.130;24.746;2023-02-12T13:30:49;100706.25;;;9.01;42.61
8320;BME280;4197;42.130;24.746;2023-02-12T13:33:22;100719.28;;;8.99;42.68
8320;BME280;4197;42.130;24.746;2023-02-12T13:35:54;100721.06;;;9.04;42.40
8320;BME280;4197;42.130;24.746;2023-02-12T13:38:27;100722.50;;;9.10;42.12
8320;BME280;4197;42.130;24.746;2023-02-12T13:41:00;100717.72;;;9.07;42.35
8320;BME280;4197;42.130;24.746;2023-02-12T13:43:46;100720.81;;;8.91;42.61
8320;BME280;4197;42.130;24.746;2023-02-12T13:46:23;100721.91;;;9.22;41.48
8320;BME280;4197;42.130;24.746;2023-02-12T13:49:00;100718.72;;;9.28;41.63
8320;BME280;4197;42.130;24.746;2023-02-12T13:51:40;100718.06;;;9.23;41.93
8320;BME280;4197;42.130;24.746;2023-02-12T13:54:17;100722.50;;;9.10;42.51
8320;BME280;4197;42.130;24.746;2023-02-12T13:56:51;100726.66;;;9.16;42.55
8320;BME280;4197;42.130;24.746;2023-02-12T13:59:50;100732.72;;;9.22;41.80